Weather at Mikkeli Airport

Public forecast

Using degrees Celsius for public forecast. Weather courtesy of forecast.io.

Current aviation weather report (METAR) for Mikkeli Airport

2024/06/16 12:50 (retrieved 10 minutes ago)

EFMI 161250Z AUTO 13007KT 100V170 CAVOK 21/10 Q1017

Closest aviation forecast (TAF) to Mikkeli Airport

Closest forecast is Jyväskylä Airport, 60.6 nm (112.2 km) NW.

2024/06/16 12:42 (retrieved 18 minutes ago)

TAF EFJY 161136Z 1612/1712 17010KT CAVOK PROB30 TEMPO 1620/1703 FEW050CB BECMG 1623/1701 11005KT PROB40 TEMPO 1709/1712 FEW050TCU